sensor_id;sensor_type;location;lat;lon;timestamp;P1;durP1;ratioP1;P2;durP2;ratioP2
34988;SDS011;21192;40.182;44.516;2023-06-22T00:00:56;15.07;;;3.97;;
34988;SDS011;21192;40.182;44.516;2023-06-22T00:03:22;10.80;;;3.80;;
34988;SDS011;21192;40.182;44.516;2023-06-22T00:05:49;8.77;;;2.88;;
34988;SDS011;21192;40.182;44.516;2023-06-22T00:08:16;12.52;;;3.20;;
34988;SDS011;21192;40.182;44.516;2023-06-22T00:10:43;8.50;;;2.72;;
34988;SDS011;21192;40.182;44.516;2023-06-22T00:13:09;7.60;;;2.67;;
34988;SDS011;21192;40.182;44.516;2023-06-22T00:15:35;9.00;;;2.30;;
34988;SDS011;21192;40.182;44.516;2023-06-22T00:18:03;6.13;;;2.30;;
34988;SDS011;21192;40.182;44.516;2023-06-22T00:20:30;7.18;;;2.25;;
34988;SDS011;21192;40.182;44.516;2023-06-22T00:22:56;5.10;;;2.10;;
34988;SDS011;21192;40.182;44.516;2023-06-22T00:25:23;5.85;;;1.70;;
34988;SDS011;21192;40.182;44.516;2023-06-22T00:27:49;5.03;;;1.70;;
34988;SDS011;21192;40.182;44.516;2023-06-22T00:30:15;5.97;;;1.60;;
34988;SDS011;21192;40.182;44.516;2023-06-22T00:32:42;4.35;;;1.40;;
34988;SDS011;21192;40.182;44.516;2023-06-22T00:35:09;5.60;;;1.40;;
34988;SDS011;21192;40.182;44.516;2023-06-22T00:37:35;3.83;;;1.70;;
34988;SDS011;21192;40.182;44.516;2023-06-22T00:40:02;5.45;;;2.03;;
34988;SDS011;21192;40.182;44.516;2023-06-22T00:42:29;5.03;;;1.35;;
34988;SDS011;21192;40.182;44.516;2023-06-22T00:44:55;5.40;;;1.85;;
34988;SDS011;21192;40.182;44.516;2023-06-22T00:47:21;5.95;;;2.28;;
34988;SDS011;21192;40.182;44.516;2023-06-22T00:49:48;6.45;;;2.20;;
34988;SDS011;21192;40.182;44.516;2023-06-22T00:52:19;12.15;;;2.78;;
34988;SDS011;21192;40.182;44.516;2023-06-22T00:54:47;8.07;;;3.00;;
34988;SDS011;21192;40.182;44.516;2023-06-22T00:57:14;10.98;;;2.53;;
34988;SDS011;21192;40.182;44.516;2023-06-22T00:59:44;10.85;;;3.03;;
34988;SDS011;21192;40.182;44.516;2023-06-22T01:02:10;8.23;;;2.85;;
34988;SDS011;21192;40.182;44.516;2023-06-22T01:04:38;9.32;;;2.88;;
34988;SDS011;21192;40.182;44.516;2023-06-22T01:09:41;10.13;;;4.35;;
34988;SDS011;21192;40.182;44.516;2023-06-22T01:12:16;10.48;;;3.78;;
34988;SDS011;21192;40.182;44.516;2023-06-22T01:14:47;13.20;;;4.43;;
34988;SDS011;21192;40.182;44.516;2023-06-22T01:17:20;10.43;;;3.17;;
34988;SDS011;21192;40.182;44.516;2023-06-22T01:19:50;8.63;;;3.17;;
34988;SDS011;21192;40.182;44.516;2023-06-22T01:22:23;7.47;;;3.40;;
34988;SDS011;21192;40.182;44.516;2023-06-22T01:24:54;7.63;;;2.80;;
34988;SDS011;21192;40.182;44.516;2023-06-22T01:30:20;9.13;;;3.28;;
34988;SDS011;21192;40.182;44.516;2023-06-22T01:32:49;9.73;;;3.20;;
34988;SDS011;21192;40.182;44.516;2023-06-22T01:35:17;7.28;;;2.30;;
34988;SDS011;21192;40.182;44.516;2023-06-22T01:37:45;7.88;;;1.65;;
34988;SDS011;21192;40.182;44.516;2023-06-22T01:40:12;8.45;;;2.00;;
34988;SDS011;21192;40.182;44.516;2023-06-22T01:42:38;5.90;;;1.52;;
34988;SDS011;21192;40.182;44.516;2023-06-22T01:45:04;6.20;;;2.10;;
34988;SDS011;21192;40.182;44.516;2023-06-22T01:47:32;4.85;;;1.83;;
34988;SDS011;21192;40.182;44.516;2023-06-22T01:49:58;11.68;;;2.03;;
34988;SDS011;21192;40.182;44.516;2023-06-22T01:52:24;7.10;;;2.00;;
34988;SDS011;21192;40.182;44.516;2023-06-22T01:54:50;5.22;;;2.10;;
34988;SDS011;21192;40.182;44.516;2023-06-22T01:57:16;6.10;;;2.28;;
34988;SDS011;21192;40.182;44.516;2023-06-22T01:59:49;7.97;;;2.33;;
34988;SDS011;21192;40.182;44.516;2023-06-22T02:02:32;6.03;;;2.00;;
34988;SDS011;21192;40.182;44.516;2023-06-22T02:05:05;9.18;;;3.13;;
34988;SDS011;21192;40.182;44.516;2023-06-22T02:07:37;7.07;;;2.88;;
34988;SDS011;21192;40.182;44.516;2023-06-22T02:10:07;5.55;;;2.72;;
34988;SDS011;21192;40.182;44.516;2023-06-22T02:12:34;7.57;;;3.22;;
34988;SDS011;21192;40.182;44.516;2023-06-22T02:15:01;9.93;;;3.47;;
34988;SDS011;21192;40.182;44.516;2023-06-22T02:17:27;12.00;;;3.28;;
34988;SDS011;21192;40.182;44.516;2023-06-22T02:19:53;4.32;;;1.92;;
34988;SDS011;21192;40.182;44.516;2023-06-22T02:22:19;6.57;;;1.65;;
34988;SDS011;21192;40.182;44.516;2023-06-22T02:24:45;4.25;;;1.42;;
34988;SDS011;21192;40.182;44.516;2023-06-22T02:27:10;3.53;;;1.52;;
34988;SDS011;21192;40.182;44.516;2023-06-22T02:29:37;4.75;;;1.95;;
34988;SDS011;21192;40.182;44.516;2023-06-22T02:32:03;5.85;;;2.30;;
34988;SDS011;21192;40.182;44.516;2023-06-22T02:34:29;8.05;;;2.60;;
34988;SDS011;21192;40.182;44.516;2023-06-22T02:36:55;5.45;;;2.03;;
34988;SDS011;21192;40.182;44.516;2023-06-22T02:39:21;7.07;;;2.13;;
34988;SDS011;21192;40.182;44.516;2023-06-22T02:41:51;4.60;;;1.38;;
34988;SDS011;21192;40.182;44.516;2023-06-22T02:44:17;5.88;;;1.85;;
34988;SDS011;21192;40.182;44.516;2023-06-22T02:46:44;5.80;;;1.42;;
34988;SDS011;21192;40.182;44.516;2023-06-22T02:49:10;3.55;;;1.10;;
34988;SDS011;21192;40.182;44.516;2023-06-22T02:51:38;4.13;;;1.20;;
34988;SDS011;21192;40.182;44.516;2023-06-22T02:54:12;4.35;;;1.40;;
34988;SDS011;21192;40.182;44.516;2023-06-22T02:56:38;2.35;;;0.95;;
34988;SDS011;21192;40.182;44.516;2023-06-22T02:59:08;3.22;;;0.98;;
34988;SDS011;21192;40.182;44.516;2023-06-22T03:01:35;4.15;;;1.27;;
34988;SDS011;21192;40.182;44.516;2023-06-22T03:04:08;5.00;;;0.85;;
34988;SDS011;21192;40.182;44.516;2023-06-22T03:06:34;3.08;;;0.50;;
34988;SDS011;21192;40.182;44.516;2023-06-22T03:09:02;4.07;;;0.68;;
34988;SDS011;21192;40.182;44.516;2023-06-22T03:11:33;2.45;;;0.77;;
34988;SDS011;21192;40.182;44.516;2023-06-22T03:14:01;3.22;;;0.70;;
34988;SDS011;21192;40.182;44.516;2023-06-22T03:16:27;2.35;;;0.80;;
34988;SDS011;21192;40.182;44.516;2023-06-22T03:18:54;3.28;;;1.08;;
34988;SDS011;21192;40.182;44.516;2023-06-22T03:21:21;1.25;;;0.68;;
34988;SDS011;21192;40.182;44.516;2023-06-22T03:23:48;2.97;;;0.75;;
34988;SDS011;21192;40.182;44.516;2023-06-22T03:26:16;4.35;;;1.35;;
34988;SDS011;21192;40.182;44.516;2023-06-22T03:28:42;3.92;;;1.20;;
34988;SDS011;21192;40.182;44.516;2023-06-22T03:31:08;8.88;;;2.42;;
34988;SDS011;21192;40.182;44.516;2023-06-22T03:33:34;8.55;;;2.38;;
34988;SDS011;21192;40.182;44.516;2023-06-22T03:36:00;10.77;;;3.97;;
34988;SDS011;21192;40.182;44.516;2023-06-22T03:38:26;10.80;;;3.85;;
34988;SDS011;21192;40.182;44.516;2023-06-22T03:40:52;9.35;;;3.55;;
34988;SDS011;21192;40.182;44.516;2023-06-22T03:43:18;12.43;;;4.30;;
34988;SDS011;21192;40.182;44.516;2023-06-22T03:45:45;15.30;;;4.30;;
34988;SDS011;21192;40.182;44.516;2023-06-22T03:48:11;13.52;;;3.72;;
34988;SDS011;21192;40.182;44.516;2023-06-22T03:50:38;13.27;;;3.70;;
34988;SDS011;21192;40.182;44.516;2023-06-22T03:53:03;12.73;;;3.55;;
34988;SDS011;21192;40.182;44.516;2023-06-22T03:55:29;14.55;;;4.25;;
34988;SDS011;21192;40.182;44.516;2023-06-22T03:57:55;9.27;;;3.70;;
34988;SDS011;21192;40.182;44.516;2023-06-22T04:00:25;10.50;;;3.85;;
34988;SDS011;21192;40.182;44.516;2023-06-22T04:02:51;8.68;;;3.53;;
34988;SDS011;21192;40.182;44.516;2023-06-22T04:05:16;7.72;;;3.47;;
34988;SDS011;21192;40.182;44.516;2023-06-22T04:07:44;9.18;;;3.40;;
34988;SDS011;21192;40.182;44.516;2023-06-22T04:10:09;11.02;;;3.33;;
34988;SDS011;21192;40.182;44.516;2023-06-22T04:12:35;10.10;;;3.83;;
34988;SDS011;21192;40.182;44.516;2023-06-22T04:15:01;12.45;;;4.13;;
34988;SDS011;21192;40.182;44.516;2023-06-22T04:17:27;9.80;;;3.20;;
34988;SDS011;21192;40.182;44.516;2023-06-22T04:19:53;10.90;;;3.65;;
34988;SDS011;21192;40.182;44.516;2023-06-22T04:22:19;9.55;;;3.42;;
34988;SDS011;21192;40.182;44.516;2023-06-22T04:24:45;11.93;;;3.97;;
34988;SDS011;21192;40.182;44.516;2023-06-22T04:27:10;8.27;;;3.38;;
34988;SDS011;21192;40.182;44.516;2023-06-22T04:29:36;9.45;;;2.85;;
34988;SDS011;21192;40.182;44.516;2023-06-22T04:32:03;7.15;;;2.33;;
34988;SDS011;21192;40.182;44.516;2023-06-22T04:34:30;10.68;;;2.58;;
34988;SDS011;21192;40.182;44.516;2023-06-22T04:36:56;12.98;;;3.65;;
34988;SDS011;21192;40.182;44.516;2023-06-22T04:39:22;6.82;;;2.30;;
34988;SDS011;21192;40.182;44.516;2023-06-22T04:41:49;6.32;;;2.65;;
34988;SDS011;21192;40.182;44.516;2023-06-22T04:44:17;9.70;;;2.78;;
34988;SDS011;21192;40.182;44.516;2023-06-22T04:46:49;5.03;;;2.00;;
34988;SDS011;21192;40.182;44.516;2023-06-22T04:49:24;5.72;;;1.75;;
34988;SDS011;21192;40.182;44.516;2023-06-22T04:51:58;5.55;;;1.58;;
34988;SDS011;21192;40.182;44.516;2023-06-22T04:54:24;6.95;;;2.10;;
34988;SDS011;21192;40.182;44.516;2023-06-22T04:56:50;8.80;;;2.15;;
34988;SDS011;21192;40.182;44.516;2023-06-22T04:59:21;5.13;;;1.98;;
34988;SDS011;21192;40.182;44.516;2023-06-22T05:01:53;6.90;;;2.05;;
34988;SDS011;21192;40.182;44.516;2023-06-22T05:04:19;5.43;;;2.10;;
34988;SDS011;21192;40.182;44.516;2023-06-22T05:06:45;8.98;;;2.50;;
34988;SDS011;21192;40.182;44.516;2023-06-22T05:09:11;8.30;;;2.30;;
34988;SDS011;21192;40.182;44.516;2023-06-22T05:11:37;9.70;;;2.47;;
34988;SDS011;21192;40.182;44.516;2023-06-22T05:14:03;12.77;;;3.22;;
34988;SDS011;21192;40.182;44.516;2023-06-22T05:16:29;10.20;;;3.63;;
34988;SDS011;21192;40.182;44.516;2023-06-22T05:18:55;7.18;;;3.20;;
34988;SDS011;21192;40.182;44.516;2023-06-22T05:21:24;13.50;;;6.90;;
34988;SDS011;21192;40.182;44.516;2023-06-22T05:23:51;8.90;;;3.28;;
34988;SDS011;21192;40.182;44.516;2023-06-22T05:26:19;13.15;;;3.42;;
34988;SDS011;21192;40.182;44.516;2023-06-22T05:28:46;11.27;;;3.28;;
34988;SDS011;21192;40.182;44.516;2023-06-22T05:31:16;21.75;;;5.15;;
34988;SDS011;21192;40.182;44.516;2023-06-22T05:33:42;12.30;;;3.42;;
34988;SDS011;21192;40.182;44.516;2023-06-22T05:36:09;9.63;;;2.83;;
34988;SDS011;21192;40.182;44.516;2023-06-22T05:38:35;16.15;;;3.28;;
34988;SDS011;21192;40.182;44.516;2023-06-22T05:41:02;15.75;;;3.53;;
34988;SDS011;21192;40.182;44.516;2023-06-22T05:43:28;12.63;;;2.90;;
34988;SDS011;21192;40.182;44.516;2023-06-22T05:45:54;19.25;;;3.60;;
34988;SDS011;21192;40.182;44.516;2023-06-22T05:48:20;6.97;;;2.75;;
34988;SDS011;21192;40.182;44.516;2023-06-22T05:50:45;10.88;;;3.35;;
34988;SDS011;21192;40.182;44.516;2023-06-22T05:53:11;12.68;;;3.90;;
34988;SDS011;21192;40.182;44.516;2023-06-22T05:55:37;20.10;;;4.22;;
34988;SDS011;21192;40.182;44.516;2023-06-22T05:58:03;12.15;;;3.85;;
34988;SDS011;21192;40.182;44.516;2023-06-22T06:00:29;14.52;;;3.55;;
34988;SDS011;21192;40.182;44.516;2023-06-22T06:02:55;12.73;;;3.40;;
34988;SDS011;21192;40.182;44.516;2023-06-22T06:05:21;20.05;;;4.63;;
34988;SDS011;21192;40.182;44.516;2023-06-22T06:07:49;13.45;;;4.47;;
34988;SDS011;21192;40.182;44.516;2023-06-22T06:10:14;14.73;;;4.65;;
34988;SDS011;21192;40.182;44.516;2023-06-22T06:12:40;17.00;;;4.93;;
34988;SDS011;21192;40.182;44.516;2023-06-22T06:15:06;17.63;;;4.97;;
34988;SDS011;21192;40.182;44.516;2023-06-22T06:17:32;14.05;;;4.70;;
34988;SDS011;21192;40.182;44.516;2023-06-22T06:19:59;21.42;;;4.55;;
34988;SDS011;21192;40.182;44.516;2023-06-22T06:22:25;17.40;;;4.68;;
34988;SDS011;21192;40.182;44.516;2023-06-22T06:24:51;14.00;;;4.50;;
34988;SDS011;21192;40.182;44.516;2023-06-22T06:27:17;14.75;;;5.22;;
34988;SDS011;21192;40.182;44.516;2023-06-22T06:29:43;18.33;;;5.22;;
34988;SDS011;21192;40.182;44.516;2023-06-22T06:32:13;14.23;;;4.57;;
34988;SDS011;21192;40.182;44.516;2023-06-22T06:34:38;15.57;;;4.95;;
34988;SDS011;21192;40.182;44.516;2023-06-22T06:37:05;15.18;;;5.20;;
34988;SDS011;21192;40.182;44.516;2023-06-22T06:39:31;10.57;;;3.88;;
34988;SDS011;21192;40.182;44.516;2023-06-22T06:41:57;10.60;;;3.35;;
34988;SDS011;21192;40.182;44.516;2023-06-22T06:44:23;14.88;;;4.25;;
34988;SDS011;21192;40.182;44.516;2023-06-22T06:46:48;16.20;;;5.22;;
34988;SDS011;21192;40.182;44.516;2023-06-22T06:49:15;8.30;;;3.33;;
34988;SDS011;21192;40.182;44.516;2023-06-22T06:51:41;13.77;;;3.85;;
34988;SDS011;21192;40.182;44.516;2023-06-22T06:54:06;14.13;;;3.63;;
34988;SDS011;21192;40.182;44.516;2023-06-22T06:56:32;15.00;;;3.60;;
34988;SDS011;21192;40.182;44.516;2023-06-22T06:58:58;11.73;;;3.15;;
34988;SDS011;21192;40.182;44.516;2023-06-22T07:01:24;10.73;;;3.45;;
34988;SDS011;21192;40.182;44.516;2023-06-22T07:03:50;8.38;;;2.85;;
34988;SDS011;21192;40.182;44.516;2023-06-22T07:06:16;20.08;;;4.20;;
34988;SDS011;21192;40.182;44.516;2023-06-22T07:08:41;11.90;;;3.60;;
34988;SDS011;21192;40.182;44.516;2023-06-22T07:11:08;10.70;;;3.33;;
34988;SDS011;21192;40.182;44.516;2023-06-22T07:13:33;13.00;;;3.38;;
34988;SDS011;21192;40.182;44.516;2023-06-22T07:15:59;12.35;;;3.60;;
34988;SDS011;21192;40.182;44.516;2023-06-22T07:18:25;14.00;;;4.03;;
34988;SDS011;21192;40.182;44.516;2023-06-22T07:20:51;9.95;;;4.40;;
34988;SDS011;21192;40.182;44.516;2023-06-22T07:23:17;11.63;;;3.70;;
34988;SDS011;21192;40.182;44.516;2023-06-22T07:25:43;26.05;;;5.10;;
34988;SDS011;21192;40.182;44.516;2023-06-22T07:28:09;20.80;;;4.82;;
34988;SDS011;21192;40.182;44.516;2023-06-22T07:30:35;11.80;;;3.88;;
34988;SDS011;21192;40.182;44.516;2023-06-22T07:33:01;15.30;;;4.20;;
34988;SDS011;21192;40.182;44.516;2023-06-22T07:35:33;8.73;;;3.40;;
34988;SDS011;21192;40.182;44.516;2023-06-22T07:37:59;18.25;;;4.70;;
34988;SDS011;21192;40.182;44.516;2023-06-22T07:40:25;13.80;;;3.78;;
34988;SDS011;21192;40.182;44.516;2023-06-22T07:42:51;18.30;;;3.92;;
34988;SDS011;21192;40.182;44.516;2023-06-22T07:45:18;14.50;;;3.42;;
34988;SDS011;21192;40.182;44.516;2023-06-22T07:47:44;9.73;;;3.53;;
34988;SDS011;21192;40.182;44.516;2023-06-22T07:50:10;20.70;;;4.35;;
34988;SDS011;21192;40.182;44.516;2023-06-22T07:52:36;16.30;;;4.47;;
34988;SDS011;21192;40.182;44.516;2023-06-22T07:55:02;20.60;;;3.95;;
34988;SDS011;21192;40.182;44.516;2023-06-22T07:57:28;15.05;;;4.20;;
34988;SDS011;21192;40.182;44.516;2023-06-22T08:00:02;22.40;;;4.63;;
34988;SDS011;21192;40.182;44.516;2023-06-22T08:02:37;14.35;;;4.07;;
34988;SDS011;21192;40.182;44.516;2023-06-22T08:05:03;27.08;;;4.05;;
34988;SDS011;21192;40.182;44.516;2023-06-22T08:07:29;22.42;;;5.10;;
34988;SDS011;21192;40.182;44.516;2023-06-22T08:09:57;15.55;;;4.32;;
34988;SDS011;21192;40.182;44.516;2023-06-22T08:12:23;11.80;;;4.60;;
34988;SDS011;21192;40.182;44.516;2023-06-22T08:14:49;16.65;;;5.28;;
34988;SDS011;21192;40.182;44.516;2023-06-22T08:17:15;14.63;;;3.85;;
34988;SDS011;21192;40.182;44.516;2023-06-22T08:19:41;18.70;;;3.65;;
34988;SDS011;21192;40.182;44.516;2023-06-22T08:22:07;28.60;;;4.10;;
34988;SDS011;21192;40.182;44.516;2023-06-22T08:24:33;19.45;;;4.25;;
34988;SDS011;21192;40.182;44.516;2023-06-22T08:26:58;20.75;;;3.03;;
34988;SDS011;21192;40.182;44.516;2023-06-22T08:29:24;20.25;;;3.80;;
34988;SDS011;21192;40.182;44.516;2023-06-22T08:31:50;13.43;;;3.42;;
34988;SDS011;21192;40.182;44.516;2023-06-22T08:34:16;16.75;;;3.45;;
34988;SDS011;21192;40.182;44.516;2023-06-22T08:36:46;16.48;;;4.25;;
34988;SDS011;21192;40.182;44.516;2023-06-22T08:39:16;10.48;;;3.28;;
34988;SDS011;21192;40.182;44.516;2023-06-22T08:41:42;23.60;;;4.95;;
34988;SDS011;21192;40.182;44.516;2023-06-22T08:44:08;27.90;;;5.25;;
34988;SDS011;21192;40.182;44.516;2023-06-22T08:46:34;15.63;;;4.88;;
34988;SDS011;21192;40.182;44.516;2023-06-22T08:49:00;14.88;;;4.13;;
34988;SDS011;21192;40.182;44.516;2023-06-22T08:51:26;15.60;;;4.25;;
34988;SDS011;21192;40.182;44.516;2023-06-22T08:53:52;20.25;;;3.90;;
34988;SDS011;21192;40.182;44.516;2023-06-22T08:56:18;11.38;;;3.65;;
34988;SDS011;21192;40.182;44.516;2023-06-22T08:58:44;15.23;;;3.88;;
34988;SDS011;21192;40.182;44.516;2023-06-22T09:01:10;8.77;;;3.50;;
34988;SDS011;21192;40.182;44.516;2023-06-22T09:03:36;7.95;;;3.03;;
34988;SDS011;21192;40.182;44.516;2023-06-22T09:06:03;10.23;;;3.33;;
34988;SDS011;21192;40.182;44.516;2023-06-22T09:08:29;9.98;;;3.85;;
34988;SDS011;21192;40.182;44.516;2023-06-22T09:10:55;10.48;;;3.90;;
34988;SDS011;21192;40.182;44.516;2023-06-22T09:13:21;9.73;;;4.05;;
34988;SDS011;21192;40.182;44.516;2023-06-22T09:15:47;10.95;;;5.18;;
34988;SDS011;21192;40.182;44.516;2023-06-22T09:18:13;15.80;;;7.70;;
34988;SDS011;21192;40.182;44.516;2023-06-22T09:20:39;18.10;;;7.55;;
34988;SDS011;21192;40.182;44.516;2023-06-22T09:23:05;11.02;;;4.88;;
34988;SDS011;21192;40.182;44.516;2023-06-22T09:25:31;12.35;;;5.85;;
34988;SDS011;21192;40.182;44.516;2023-06-22T09:27:57;11.85;;;5.22;;
34988;SDS011;21192;40.182;44.516;2023-06-22T09:30:23;12.18;;;4.95;;
34988;SDS011;21192;40.182;44.516;2023-06-22T09:32:49;10.15;;;4.25;;
34988;SDS011;21192;40.182;44.516;2023-06-22T09:35:14;10.77;;;4.72;;
34988;SDS011;21192;40.182;44.516;2023-06-22T09:37:40;15.95;;;7.75;;
34988;SDS011;21192;40.182;44.516;2023-06-22T09:40:07;16.73;;;7.25;;
34988;SDS011;21192;40.182;44.516;2023-06-22T09:42:36;17.23;;;8.80;;
34988;SDS011;21192;40.182;44.516;2023-06-22T09:45:02;23.05;;;7.57;;
34988;SDS011;21192;40.182;44.516;2023-06-22T09:47:29;12.32;;;5.45;;
34988;SDS011;21192;40.182;44.516;2023-06-22T09:49:55;10.20;;;4.35;;
34988;SDS011;21192;40.182;44.516;2023-06-22T09:52:21;7.68;;;2.80;;
34988;SDS011;21192;40.182;44.516;2023-06-22T09:54:47;7.07;;;3.10;;
34988;SDS011;21192;40.182;44.516;2023-06-22T09:57:13;7.90;;;4.30;;
34988;SDS011;21192;40.182;44.516;2023-06-22T09:59:39;7.72;;;3.17;;
34988;SDS011;21192;40.182;44.516;2023-06-22T10:02:07;6.63;;;3.22;;
34988;SDS011;21192;40.182;44.516;2023-06-22T10:04:34;7.78;;;3.30;;
34988;SDS011;21192;40.182;44.516;2023-06-22T10:07:00;7.43;;;3.22;;
34988;SDS011;21192;40.182;44.516;2023-06-22T10:09:26;7.57;;;3.10;;
34988;SDS011;21192;40.182;44.516;2023-06-22T10:11:52;10.70;;;3.45;;
34988;SDS011;21192;40.182;44.516;2023-06-22T10:14:18;11.23;;;3.72;;
34988;SDS011;21192;40.182;44.516;2023-06-22T10:16:45;11.75;;;4.50;;
34988;SDS011;21192;40.182;44.516;2023-06-22T10:19:11;7.45;;;3.30;;
34988;SDS011;21192;40.182;44.516;2023-06-22T10:21:37;8.32;;;4.00;;
34988;SDS011;21192;40.182;44.516;2023-06-22T10:24:02;8.23;;;3.08;;
34988;SDS011;21192;40.182;44.516;2023-06-22T10:26:34;17.33;;;5.75;;
34988;SDS011;21192;40.182;44.516;2023-06-22T10:29:01;14.65;;;5.50;;
34988;SDS011;21192;40.182;44.516;2023-06-22T10:31:28;8.70;;;4.15;;
34988;SDS011;21192;40.182;44.516;2023-06-22T10:33:54;5.93;;;3.10;;
34988;SDS011;21192;40.182;44.516;2023-06-22T10:36:21;10.02;;;4.07;;
34988;SDS011;21192;40.182;44.516;2023-06-22T10:38:48;10.45;;;4.03;;
34988;SDS011;21192;40.182;44.516;2023-06-22T10:41:14;9.98;;;6.10;;
34988;SDS011;21192;40.182;44.516;2023-06-22T10:43:41;18.02;;;6.43;;
34988;SDS011;21192;40.182;44.516;2023-06-22T10:46:06;15.00;;;8.50;;
34988;SDS011;21192;40.182;44.516;2023-06-22T10:48:32;7.65;;;3.60;;
34988;SDS011;21192;40.182;44.516;2023-06-22T10:50:58;28.05;;;7.30;;
34988;SDS011;21192;40.182;44.516;2023-06-22T10:53:24;9.82;;;5.18;;
34988;SDS011;21192;40.182;44.516;2023-06-22T10:55:50;7.10;;;3.33;;
34988;SDS011;21192;40.182;44.516;2023-06-22T10:58:20;25.92;;;6.85;;
34988;SDS011;21192;40.182;44.516;2023-06-22T11:00:46;12.60;;;3.83;;
34988;SDS011;21192;40.182;44.516;2023-06-22T11:03:12;7.65;;;2.25;;
34988;SDS011;21192;40.182;44.516;2023-06-22T11:05:39;9.85;;;2.47;;
34988;SDS011;21192;40.182;44.516;2023-06-22T11:08:05;7.20;;;2.45;;
34988;SDS011;21192;40.182;44.516;2023-06-22T11:10:31;4.20;;;1.90;;
34988;SDS011;21192;40.182;44.516;2023-06-22T11:12:56;5.45;;;2.28;;
34988;SDS011;21192;40.182;44.516;2023-06-22T11:15:23;5.43;;;2.10;;
34988;SDS011;21192;40.182;44.516;2023-06-22T11:17:49;2.92;;;1.80;;
34988;SDS011;21192;40.182;44.516;2023-06-22T11:20:15;5.68;;;3.20;;
34988;SDS011;21192;40.182;44.516;2023-06-22T11:22:41;5.20;;;2.80;;
34988;SDS011;21192;40.182;44.516;2023-06-22T11:25:07;6.05;;;3.13;;
34988;SDS011;21192;40.182;44.516;2023-06-22T11:27:34;7.40;;;2.78;;
34988;SDS011;21192;40.182;44.516;2023-06-22T11:30:00;8.13;;;3.30;;
34988;SDS011;21192;40.182;44.516;2023-06-22T11:32:26;7.53;;;3.00;;
34988;SDS011;21192;40.182;44.516;2023-06-22T11:34:52;12.13;;;4.97;;
34988;SDS011;21192;40.182;44.516;2023-06-22T11:37:17;5.55;;;1.55;;
34988;SDS011;21192;40.182;44.516;2023-06-22T11:39:43;9.23;;;2.00;;
34988;SDS011;21192;40.182;44.516;2023-06-22T11:42:09;2.90;;;1.50;;
34988;SDS011;21192;40.182;44.516;2023-06-22T11:44:35;3.83;;;1.70;;
34988;SDS011;21192;40.182;44.516;2023-06-22T11:47:01;4.00;;;1.73;;
34988;SDS011;21192;40.182;44.516;2023-06-22T11:49:29;4.95;;;2.30;;
34988;SDS011;21192;40.182;44.516;2023-06-22T11:51:56;4.60;;;2.20;;
34988;SDS011;21192;40.182;44.516;2023-06-22T11:54:21;6.10;;;2.78;;
34988;SDS011;21192;40.182;44.516;2023-06-22T11:56:47;11.80;;;4.35;;
34988;SDS011;21192;40.182;44.516;2023-06-22T11:59:13;5.65;;;2.92;;
34988;SDS011;21192;40.182;44.516;2023-06-22T12:01:39;19.20;;;5.32;;
34988;SDS011;21192;40.182;44.516;2023-06-22T12:04:05;7.18;;;3.10;;
34988;SDS011;21192;40.182;44.516;2023-06-22T12:06:33;5.53;;;2.30;;
34988;SDS011;21192;40.182;44.516;2023-06-22T12:09:03;4.00;;;1.60;;
34988;SDS011;21192;40.182;44.516;2023-06-22T12:11:32;8.48;;;1.70;;
34988;SDS011;21192;40.182;44.516;2023-06-22T12:13:58;6.20;;;1.65;;
34988;SDS011;21192;40.182;44.516;2023-06-22T12:16:27;6.65;;;1.83;;
34988;SDS011;21192;40.182;44.516;2023-06-22T12:18:53;13.05;;;3.47;;
34988;SDS011;21192;40.182;44.516;2023-06-22T12:21:19;10.07;;;2.97;;
34988;SDS011;21192;40.182;44.516;2023-06-22T12:23:45;5.93;;;2.08;;
34988;SDS011;21192;40.182;44.516;2023-06-22T12:26:10;4.07;;;1.67;;
34988;SDS011;21192;40.182;44.516;2023-06-22T12:28:36;4.40;;;2.03;;
34988;SDS011;21192;40.182;44.516;2023-06-22T12:31:02;6.55;;;1.90;;
34988;SDS011;21192;40.182;44.516;2023-06-22T12:33:28;5.10;;;1.60;;
34988;SDS011;21192;40.182;44.516;2023-06-22T12:35:55;6.45;;;2.40;;
34988;SDS011;21192;40.182;44.516;2023-06-22T12:38:21;7.10;;;2.30;;
34988;SDS011;21192;40.182;44.516;2023-06-22T12:40:49;5.80;;;2.50;;
34988;SDS011;21192;40.182;44.516;2023-06-22T12:43:15;10.32;;;3.50;;
34988;SDS011;21192;40.182;44.516;2023-06-22T12:45:40;9.77;;;2.17;;
34988;SDS011;21192;40.182;44.516;2023-06-22T12:48:06;10.38;;;2.85;;
34988;SDS011;21192;40.182;44.516;2023-06-22T12:50:33;13.48;;;4.70;;
34988;SDS011;21192;40.182;44.516;2023-06-22T12:52:59;16.33;;;5.63;;
34988;SDS011;21192;40.182;44.516;2023-06-22T12:55:27;15.95;;;6.25;;
34988;SDS011;21192;40.182;44.516;2023-06-22T12:57:53;10.95;;;4.32;;
34988;SDS011;21192;40.182;44.516;2023-06-22T13:00:20;13.45;;;5.57;;
34988;SDS011;21192;40.182;44.516;2023-06-22T13:02:46;12.98;;;5.53;;
34988;SDS011;21192;40.182;44.516;2023-06-22T13:05:12;12.15;;;5.00;;
34988;SDS011;21192;40.182;44.516;2023-06-22T13:07:38;11.80;;;5.60;;
34988;SDS011;21192;40.182;44.516;2023-06-22T13:10:04;9.88;;;4.55;;
34988;SDS011;21192;40.182;44.516;2023-06-22T13:12:30;11.85;;;4.82;;
34988;SDS011;21192;40.182;44.516;2023-06-22T13:14:56;7.28;;;4.18;;
34988;SDS011;21192;40.182;44.516;2023-06-22T13:17:22;9.63;;;3.65;;
34988;SDS011;21192;40.182;44.516;2023-06-22T13:19:47;9.93;;;4.03;;
34988;SDS011;21192;40.182;44.516;2023-06-22T13:22:26;11.63;;;4.20;;
34988;SDS011;21192;40.182;44.516;2023-06-22T13:24:56;5.93;;;3.65;;
34988;SDS011;21192;40.182;44.516;2023-06-22T13:27:23;11.50;;;3.47;;
34988;SDS011;21192;40.182;44.516;2023-06-22T13:29:49;10.18;;;3.45;;
34988;SDS011;21192;40.182;44.516;2023-06-22T13:32:15;5.38;;;2.50;;
34988;SDS011;21192;40.182;44.516;2023-06-22T13:34:41;7.95;;;3.35;;
34988;SDS011;21192;40.182;44.516;2023-06-22T13:37:07;6.65;;;4.03;;
34988;SDS011;21192;40.182;44.516;2023-06-22T13:39:33;15.40;;;4.57;;
34988;SDS011;21192;40.182;44.516;2023-06-22T13:41:59;8.35;;;4.03;;
34988;SDS011;21192;40.182;44.516;2023-06-22T13:44:25;11.35;;;4.25;;
34988;SDS011;21192;40.182;44.516;2023-06-22T13:46:54;11.07;;;4.20;;
34988;SDS011;21192;40.182;44.516;2023-06-22T13:49:20;8.45;;;4.13;;
34988;SDS011;21192;40.182;44.516;2023-06-22T13:51:47;12.27;;;4.72;;
34988;SDS011;21192;40.182;44.516;2023-06-22T13:54:16;9.15;;;3.40;;
34988;SDS011;21192;40.182;44.516;2023-06-22T13:56:42;11.38;;;3.90;;
34988;SDS011;21192;40.182;44.516;2023-06-22T13:59:08;16.83;;;5.45;;
34988;SDS011;21192;40.182;44.516;2023-06-22T14:01:36;7.35;;;3.90;;
34988;SDS011;21192;40.182;44.516;2023-06-22T14:04:05;5.75;;;3.20;;
34988;SDS011;21192;40.182;44.516;2023-06-22T14:06:31;7.70;;;3.70;;
34988;SDS011;21192;40.182;44.516;2023-06-22T14:08:56;9.50;;;3.45;;
34988;SDS011;21192;40.182;44.516;2023-06-22T14:11:22;5.85;;;2.58;;
34988;SDS011;21192;40.182;44.516;2023-06-22T14:13:49;7.88;;;3.25;;
34988;SDS011;21192;40.182;44.516;2023-06-22T14:16:15;6.00;;;2.65;;
34988;SDS011;21192;40.182;44.516;2023-06-22T14:18:41;11.40;;;3.53;;
34988;SDS011;21192;40.182;44.516;2023-06-22T14:21:07;7.82;;;3.70;;
34988;SDS011;21192;40.182;44.516;2023-06-22T14:23:33;9.55;;;5.80;;
34988;SDS011;21192;40.182;44.516;2023-06-22T14:25:59;14.73;;;5.07;;
34988;SDS011;21192;40.182;44.516;2023-06-22T14:28:25;12.43;;;4.90;;
34988;SDS011;21192;40.182;44.516;2023-06-22T14:30:51;7.35;;;3.28;;